createdAt,value
2019-03-08T00:00:24.405Z,1.20
2019-03-08T00:02:52.767Z,1.27
2019-03-08T00:05:21.306Z,1.25
2019-03-08T00:07:49.965Z,1.65
2019-03-08T00:10:18.647Z,1.40
2019-03-08T00:12:47.271Z,2.17
2019-03-08T00:15:15.603Z,0.98
2019-03-08T00:17:44.215Z,1.00
2019-03-08T00:20:13.043Z,1.67
2019-03-08T00:22:41.690Z,1.52
2019-03-08T00:25:11.268Z,1.37
2019-03-08T00:27:39.895Z,1.10
2019-03-08T00:30:11.214Z,1.42
2019-03-08T00:32:39.839Z,1.30
2019-03-08T00:35:09.040Z,1.25
2019-03-08T00:37:37.375Z,1.20
2019-03-08T00:40:08.474Z,1.45
2019-03-08T00:42:36.815Z,1.35
2019-03-08T00:45:08.819Z,1.55
2019-03-08T00:47:37.350Z,1.20
2019-03-08T00:50:07.336Z,1.50
2019-03-08T00:52:35.937Z,1.25
2019-03-08T00:55:06.034Z,1.37
2019-03-08T00:57:34.376Z,1.50
2019-03-08T01:00:03.009Z,1.50
2019-03-08T01:02:31.687Z,1.32
2019-03-08T01:04:59.975Z,0.98
2019-03-08T01:07:28.664Z,1.37
2019-03-08T01:09:57.027Z,1.32
2019-03-08T01:12:25.363Z,0.95
2019-03-08T01:14:53.723Z,1.67
2019-03-08T01:17:22.263Z,1.67
2019-03-08T01:19:50.619Z,1.60
2019-03-08T01:22:19.266Z,1.40
2019-03-08T01:24:47.963Z,1.47
2019-03-08T01:27:16.307Z,1.50
2019-03-08T01:29:45.031Z,2.15
2019-03-08T01:32:13.727Z,1.30
2019-03-08T01:34:42.086Z,1.20
2019-03-08T01:37:10.687Z,1.17
2019-03-08T01:39:39.396Z,1.40
2019-03-08T01:42:07.727Z,1.10
2019-03-08T01:44:36.463Z,1.25
2019-03-08T01:47:04.806Z,1.82
2019-03-08T01:49:33.167Z,1.32
2019-03-08T01:52:01.512Z,1.57
2019-03-08T01:54:29.870Z,1.30
2019-03-08T01:56:58.212Z,1.22
2019-03-08T01:59:26.872Z,1.15
2019-03-08T02:01:55.211Z,1.17
2019-03-08T02:04:23.573Z,1.07
2019-03-08T02:06:52.171Z,1.17
2019-03-08T02:09:20.803Z,1.12
2019-03-08T02:11:49.062Z,0.93
2019-03-08T02:14:17.427Z,1.67
2019-03-08T02:16:46.055Z,1.62
2019-03-08T02:19:14.415Z,1.70
2019-03-08T02:21:42.755Z,1.62
2019-03-08T02:24:11.411Z,1.40
2019-03-08T02:26:40.099Z,1.52
2019-03-08T02:29:08.439Z,1.27
2019-03-08T02:31:37.056Z,1.57
2019-03-08T02:34:05.396Z,0.80
2019-03-08T02:36:34.044Z,1.52
2019-03-08T02:39:02.384Z,1.27
2019-03-08T02:41:30.742Z,1.30
2019-03-08T02:43:59.085Z,1.65
2019-03-08T02:46:27.551Z,1.67
2019-03-08T02:48:55.891Z,0.90
2019-03-08T02:51:24.555Z,1.77
2019-03-08T02:53:53.242Z,1.90
2019-03-08T02:56:21.936Z,1.40
2019-03-08T02:58:50.626Z,1.27
2019-03-08T03:01:18.983Z,2.22
2019-03-08T03:03:47.319Z,1.40
2019-03-08T03:06:15.881Z,1.60
2019-03-08T03:08:44.223Z,1.15
2019-03-08T03:11:12.951Z,1.25
2019-03-08T03:13:41.287Z,1.22
2019-03-08T03:16:09.927Z,1.47
2019-03-08T03:18:38.264Z,0.95
2019-03-08T03:21:06.630Z,1.02
2019-03-08T03:23:34.975Z,1.70
2019-03-08T03:26:03.663Z,1.52
2019-03-08T03:28:32.005Z,1.37
2019-03-08T03:31:00.363Z,0.98
2019-03-08T03:33:28.699Z,1.02
2019-03-08T03:35:57.395Z,1.47
2019-03-08T03:38:26.092Z,1.52
2019-03-08T03:40:54.775Z,1.15
2019-03-08T03:43:23.110Z,1.45
2019-03-08T03:45:51.751Z,0.98
2019-03-08T03:48:20.443Z,1.10
2019-03-08T03:50:48.803Z,1.17
2019-03-08T03:53:17.415Z,0.93
2019-03-08T03:55:45.778Z,1.35
2019-03-08T03:58:33.552Z,1.30
2019-03-08T04:01:03.559Z,1.30
2019-03-08T04:03:31.905Z,1.45
2019-03-08T04:06:00.271Z,1.72
2019-03-08T04:08:30.019Z,1.30
2019-03-08T04:10:58.716Z,1.20
2019-03-08T04:13:27.051Z,1.45
2019-03-08T04:15:55.786Z,1.20
2019-03-08T04:18:24.479Z,1.22
2019-03-08T04:20:52.861Z,1.52
2019-03-08T04:23:21.443Z,1.35
2019-03-08T04:25:50.139Z,0.82
2019-03-08T04:28:18.479Z,1.20
2019-03-08T04:30:46.838Z,1.90
2019-03-08T04:33:15.189Z,1.60
2019-03-08T04:35:43.879Z,0.98
2019-03-08T04:38:12.563Z,0.78
2019-03-08T04:40:41.026Z,1.20
2019-03-08T04:43:09.643Z,1.35
2019-03-08T04:45:38.264Z,1.92
2019-03-08T04:48:06.919Z,1.20
2019-03-08T04:50:35.615Z,1.62
2019-03-08T04:53:04.304Z,1.30
2019-03-08T04:55:32.867Z,1.17
2019-03-08T04:58:01.478Z,1.22
2019-03-08T05:00:30.163Z,1.10
2019-03-08T05:02:58.507Z,1.22
2019-03-08T05:05:27.139Z,0.88
2019-03-08T05:07:55.831Z,1.55
2019-03-08T05:10:24.371Z,1.37
2019-03-08T05:12:52.702Z,1.52
2019-03-08T05:15:21.291Z,1.30
2019-03-08T05:17:49.651Z,1.20
2019-03-08T05:20:37.805Z,1.07
2019-03-08T05:23:06.495Z,1.82
2019-03-08T05:25:34.835Z,0.78
2019-03-08T05:28:04.841Z,1.90
2019-03-08T05:30:34.682Z,1.40
2019-03-08T05:33:03.412Z,1.30
2019-03-08T05:35:32.199Z,1.30
2019-03-08T05:38:00.891Z,1.12
2019-03-08T05:40:29.232Z,1.12
2019-03-08T05:42:57.591Z,1.75
2019-03-08T05:45:26.243Z,1.27
2019-03-08T05:47:54.611Z,1.77
2019-03-08T05:50:23.523Z,1.37
2019-03-08T05:52:52.208Z,1.85
2019-03-08T05:55:20.551Z,1.52
2019-03-08T05:57:48.914Z,1.98
2019-03-08T06:00:19.091Z,1.20
2019-03-08T06:02:47.457Z,1.32
2019-03-08T06:05:15.795Z,1.57
2019-03-08T06:07:44.158Z,1.60
2019-03-08T06:10:31.682Z,1.50
2019-03-08T06:13:01.081Z,1.70
2019-03-08T06:15:29.424Z,1.70
2019-03-08T06:17:58.001Z,1.52
2019-03-08T06:20:26.330Z,1.10
2019-03-08T06:22:54.695Z,1.05
2019-03-08T06:25:23.041Z,1.62
2019-03-08T06:27:51.688Z,1.50
2019-03-08T06:30:20.032Z,1.80
2019-03-08T06:32:48.761Z,1.75
2019-03-08T06:35:17.447Z,2.17
2019-03-08T06:37:46.136Z,1.20
2019-03-08T06:40:14.831Z,1.82
2019-03-08T06:42:43.200Z,1.50
2019-03-08T06:45:17.052Z,1.45
2019-03-08T06:47:45.711Z,1.22
2019-03-08T06:50:15.228Z,1.65
2019-03-08T06:52:43.582Z,1.60
2019-03-08T06:55:15.826Z,1.70
2019-03-08T06:57:44.192Z,1.47
2019-03-08T07:00:37.819Z,2.00
2019-03-08T07:03:07.747Z,1.47
2019-03-08T07:05:36.427Z,1.60
2019-03-08T07:08:05.430Z,1.92
2019-03-08T07:10:34.995Z,0.95
2019-03-08T07:13:03.897Z,1.52
2019-03-08T07:15:32.621Z,1.52
2019-03-08T07:18:00.979Z,1.10
2019-03-08T07:20:34.102Z,1.60
2019-03-08T07:23:11.166Z,1.37
2019-03-08T07:25:50.899Z,2.05
2019-03-08T07:28:25.647Z,1.37
2019-03-08T07:31:01.527Z,1.12
2019-03-08T07:33:31.827Z,1.60
2019-03-08T07:36:08.091Z,1.05
2019-03-08T07:38:43.523Z,1.30
2019-03-08T07:41:29.946Z,1.72
2019-03-08T07:44:06.299Z,1.52
2019-03-08T07:46:42.660Z,1.60
2019-03-08T07:49:22.429Z,1.45
2019-03-08T07:51:52.687Z,1.27
2019-03-08T07:54:28.786Z,1.35
2019-03-08T07:57:02.761Z,1.72
2019-03-08T07:59:41.750Z,1.95
2019-03-08T08:02:18.083Z,1.65
2019-03-08T08:04:48.069Z,1.40
2019-03-08T08:07:33.140Z,1.60
2019-03-08T08:12:51.871Z,1.25
2019-03-08T08:15:37.411Z,1.50
2019-03-08T08:18:10.728Z,1.62
2019-03-08T08:20:52.913Z,1.30
2019-03-08T08:23:22.923Z,1.90
2019-03-08T08:25:55.902Z,1.75
2019-03-08T08:28:26.453Z,1.47
2019-03-08T08:30:59.094Z,1.65
2019-03-08T08:33:35.399Z,2.15
2019-03-08T08:36:05.382Z,1.55
2019-03-08T08:38:50.519Z,2.00
2019-03-08T08:41:32.783Z,1.90
2019-03-08T08:44:08.948Z,1.40
2019-03-08T08:46:44.995Z,1.42
2019-03-08T08:49:16.755Z,2.02
2019-03-08T08:51:52.446Z,1.95
2019-03-08T08:54:31.637Z,1.22
2019-03-08T08:57:18.240Z,1.90
2019-03-08T08:59:54.240Z,1.60
2019-03-08T09:02:36.134Z,1.95
2019-03-08T09:05:11.115Z,1.50
2019-03-08T09:07:43.915Z,1.35
2019-03-08T09:10:30.407Z,1.50
2019-03-08T09:13:12.907Z,1.27
2019-03-08T09:15:43.542Z,1.92
2019-03-08T09:18:22.982Z,1.47
2019-03-08T09:20:56.063Z,1.25
2019-03-08T09:23:26.072Z,1.47
2019-03-08T09:26:09.207Z,1.42
2019-03-08T09:28:41.959Z,1.40
2019-03-08T09:31:11.938Z,1.60
2019-03-08T09:33:44.862Z,1.12
2019-03-08T09:36:28.146Z,1.50
2019-03-08T09:38:58.127Z,1.52
2019-03-08T09:41:40.183Z,1.45
2019-03-08T09:44:10.459Z,1.70
2019-03-08T09:46:46.462Z,1.60
2019-03-08T09:49:25.474Z,1.50
2019-03-08T09:51:55.455Z,1.62
2019-03-08T09:54:39.202Z,1.50
2019-03-08T09:57:09.180Z,1.27
2019-03-08T09:59:39.550Z,1.82
2019-03-08T10:02:09.979Z,1.52
2019-03-08T10:04:41.115Z,2.00
2019-03-08T10:07:14.123Z,1.40
2019-03-08T10:09:44.391Z,1.75
2019-03-08T10:12:20.187Z,1.35
2019-03-08T10:14:53.155Z,1.50
2019-03-08T10:17:28.870Z,1.67
2019-03-08T10:20:15.367Z,1.70
2019-03-08T10:22:45.271Z,1.75
2019-03-08T10:25:18.235Z,1.85
2019-03-08T10:28:05.031Z,2.00
2019-03-08T10:30:40.971Z,1.52
2019-03-08T10:33:10.954Z,1.25
2019-03-08T10:35:40.958Z,1.70
2019-03-08T10:38:22.528Z,1.95
2019-03-08T10:40:57.393Z,1.60
2019-03-08T10:43:27.331Z,1.95
2019-03-08T10:46:00.237Z,2.15
2019-03-08T10:48:30.586Z,1.95
2019-03-08T10:51:04.899Z,1.80
2019-03-08T10:53:44.131Z,1.47
2019-03-08T10:56:17.115Z,1.75
2019-03-08T10:58:47.101Z,1.60
2019-03-08T11:01:18.391Z,1.62
2019-03-08T11:03:49.024Z,1.90
2019-03-08T11:06:34.704Z,2.20
2019-03-08T11:09:05.031Z,1.80
2019-03-08T11:11:47.126Z,1.52
2019-03-08T11:14:17.112Z,1.60
2019-03-08T11:16:47.479Z,1.47
2019-03-08T11:19:17.460Z,2.25
2019-03-08T11:22:05.852Z,1.70
2019-03-08T11:24:48.031Z,1.65
2019-03-08T11:27:23.807Z,1.70
2019-03-08T11:30:12.228Z,2.00
2019-03-08T11:32:42.548Z,1.80
2019-03-08T11:35:18.619Z,1.80
2019-03-08T11:37:48.940Z,2.05
2019-03-08T11:40:21.559Z,1.50
2019-03-08T11:42:57.475Z,2.62
2019-03-08T11:45:34.563Z,2.37
2019-03-08T11:48:07.551Z,2.62
2019-03-08T11:50:54.451Z,2.80
2019-03-08T11:53:27.644Z,2.75
2019-03-08T11:56:15.656Z,2.35
2019-03-08T11:58:46.005Z,1.70
2019-03-08T12:01:21.775Z,1.20
2019-03-08T12:03:58.994Z,2.20
2019-03-08T12:06:37.979Z,1.80
2019-03-08T12:09:10.009Z,0.82
2019-03-08T12:11:42.962Z,1.00
2019-03-08T12:14:12.969Z,1.00
2019-03-08T12:16:46.028Z,1.98
2019-03-08T12:19:30.991Z,1.92
2019-03-08T12:24:51.299Z,0.93
2019-03-08T12:27:24.593Z,0.62
2019-03-08T12:30:09.594Z,1.22
2019-03-08T12:35:17.886Z,0.30
2019-03-08T12:37:47.887Z,0.70
2019-03-08T12:40:20.663Z,0.70
2019-03-08T12:42:53.718Z,0.40
2019-03-08T12:45:29.939Z,0.57
2019-03-08T12:48:02.622Z,1.40
2019-03-08T12:50:32.614Z,0.65
2019-03-08T12:53:02.969Z,0.93
2019-03-08T12:55:51.611Z,0.75
2019-03-08T12:58:24.698Z,0.62
2019-03-08T13:01:11.402Z,0.85
2019-03-08T13:03:58.208Z,0.98
2019-03-08T13:06:34.162Z,1.47
2019-03-08T13:09:10.423Z,1.37
2019-03-08T13:11:39.124Z,1.17
2019-03-08T13:14:07.911Z,1.47
2019-03-08T13:16:37.719Z,1.52
2019-03-08T13:19:06.423Z,1.57
2019-03-08T13:21:34.762Z,1.35
2019-03-08T13:24:03.489Z,1.27
2019-03-08T13:26:31.831Z,0.90
2019-03-08T13:29:00.190Z,1.30
2019-03-08T13:31:28.532Z,1.42
2019-03-08T13:33:56.900Z,1.00
2019-03-08T13:36:25.510Z,1.37
2019-03-08T13:38:54.203Z,1.80
2019-03-08T13:41:22.743Z,1.40
2019-03-08T13:43:51.381Z,2.20
2019-03-08T13:46:19.723Z,1.67
2019-03-08T13:48:48.087Z,2.10
2019-03-08T13:51:16.459Z,1.50
2019-03-08T13:53:45.110Z,1.60
2019-03-08T13:56:13.647Z,1.47
2019-03-08T13:58:41.945Z,1.62
2019-03-08T14:01:10.299Z,1.10
2019-03-08T14:03:38.964Z,1.60
2019-03-08T14:06:07.582Z,1.50
2019-03-08T14:08:35.982Z,1.17
2019-03-08T14:11:04.530Z,1.92
2019-03-08T14:13:33.139Z,2.05
2019-03-08T14:16:01.487Z,1.90
2019-03-08T14:18:30.195Z,1.57
2019-03-08T14:20:58.554Z,1.70
2019-03-08T14:23:26.910Z,1.65
2019-03-08T14:25:55.739Z,1.80
2019-03-08T14:28:24.432Z,2.00
2019-03-08T14:31:08.995Z,2.52
2019-03-08T14:33:38.122Z,1.90
2019-03-08T14:36:07.392Z,1.85
2019-03-08T14:38:36.701Z,2.08
2019-03-08T14:41:13.160Z,1.92
2019-03-08T14:43:59.595Z,2.00
2019-03-08T14:46:45.026Z,2.00
2019-03-08T14:49:13.711Z,3.10
2019-03-08T14:51:44.715Z,2.37
2019-03-08T14:54:12.083Z,2.00
2019-03-08T14:56:40.631Z,2.67
2019-03-08T14:59:11.200Z,1.57
2019-03-08T15:01:40.309Z,1.65
2019-03-08T15:04:09.639Z,2.65
2019-03-08T15:06:37.999Z,3.50
2019-03-08T15:09:09.743Z,2.12
2019-03-08T15:11:38.039Z,6.15
2019-03-08T15:14:06.988Z,17.17
2019-03-08T15:16:39.087Z,4.10
2019-03-08T15:19:05.984Z,1.50
2019-03-08T15:21:37.009Z,1.30
2019-03-08T15:24:04.790Z,2.50
2019-03-08T15:26:33.087Z,2.45
2019-03-08T15:29:01.771Z,1.47
2019-03-08T15:31:30.131Z,1.52
2019-03-08T15:33:58.399Z,1.62
2019-03-08T15:36:26.866Z,2.50
2019-03-08T15:38:58.780Z,1.55
2019-03-08T15:41:26.514Z,2.00
2019-03-08T15:43:54.862Z,1.85
2019-03-08T15:46:23.527Z,2.30
2019-03-08T15:48:53.260Z,2.05
2019-03-08T15:51:25.197Z,8.03
2019-03-08T15:53:54.323Z,2.12
2019-03-08T15:56:22.470Z,3.47
2019-03-08T15:58:50.739Z,1.98
2019-03-08T16:01:19.351Z,7.80
2019-03-08T16:03:48.045Z,5.92
2019-03-08T16:06:16.407Z,3.10
2019-03-08T16:08:45.007Z,3.35
2019-03-08T16:11:13.596Z,2.27
2019-03-08T16:13:42.192Z,2.10
2019-03-08T16:16:11.079Z,2.22
2019-03-08T16:18:40.031Z,2.55
2019-03-08T16:21:13.189Z,2.30
2019-03-08T16:23:40.039Z,2.80
2019-03-08T16:26:08.337Z,2.40
2019-03-08T16:28:36.867Z,3.10
2019-03-08T16:31:07.219Z,3.08
2019-03-08T16:33:40.103Z,2.60
2019-03-08T16:36:13.375Z,3.02
2019-03-08T16:38:59.987Z,2.65
2019-03-08T16:41:30.327Z,2.77
2019-03-08T16:44:03.437Z,2.70
2019-03-08T16:46:36.446Z,3.42
2019-03-08T16:49:14.886Z,2.90
2019-03-08T16:51:49.830Z,2.83
2019-03-08T16:54:36.761Z,4.97
2019-03-08T16:57:06.696Z,3.60
2019-03-08T16:59:45.612Z,3.87
2019-03-08T17:02:32.305Z,3.05
2019-03-08T17:05:07.852Z,3.95
2019-03-08T17:07:50.099Z,3.17
2019-03-08T17:10:36.747Z,3.15
2019-03-08T17:13:06.978Z,3.15
2019-03-08T17:15:39.862Z,4.20
2019-03-08T17:18:09.872Z,4.03
2019-03-08T17:20:43.095Z,4.70
2019-03-08T17:23:14.208Z,4.62
2019-03-08T17:25:44.548Z,3.40
2019-03-08T17:28:14.776Z,3.87
2019-03-08T17:30:47.659Z,7.45
2019-03-08T17:33:18.999Z,9.20
2019-03-08T17:35:53.394Z,4.20
2019-03-08T17:41:02.072Z,3.90
2019-03-08T17:43:49.942Z,4.45
2019-03-08T17:46:25.659Z,5.95
2019-03-08T17:49:01.982Z,6.40
2019-03-08T17:51:47.487Z,5.03
2019-03-08T17:54:17.815Z,6.22
2019-03-08T17:56:56.559Z,3.83
2019-03-08T17:59:26.856Z,5.85
2019-03-08T18:01:57.088Z,4.65
2019-03-08T18:04:29.927Z,5.97
2019-03-08T18:07:16.629Z,4.55
2019-03-08T18:09:53.683Z,5.78
2019-03-08T18:12:35.879Z,6.12
2019-03-08T18:15:17.535Z,5.62
2019-03-08T18:17:50.731Z,9.50
2019-03-08T18:20:35.767Z,7.67
2019-03-08T18:23:21.824Z,13.72
2019-03-08T18:25:51.830Z,10.13
2019-03-08T18:28:22.415Z,9.23
2019-03-08T18:30:55.935Z,12.73
2019-03-08T18:33:25.843Z,8.90
2019-03-08T18:35:57.207Z,8.60
2019-03-08T18:38:44.011Z,10.82
2019-03-08T18:41:23.354Z,15.50
2019-03-08T18:43:56.340Z,13.53
2019-03-08T18:46:32.598Z,14.87
2019-03-08T18:49:14.434Z,17.25
2019-03-08T18:51:53.824Z,20.55
2019-03-08T18:54:41.963Z,21.17
2019-03-08T18:57:18.215Z,23.22
2019-03-08T18:59:54.075Z,17.80
2019-03-08T19:02:39.087Z,10.15
2019-03-08T19:05:13.759Z,17.70
2019-03-08T19:07:43.672Z,18.17
2019-03-08T19:10:31.515Z,20.97
2019-03-08T19:13:16.782Z,17.73
2019-03-08T19:16:03.042Z,17.37
2019-03-08T19:18:33.394Z,10.63
2019-03-08T19:21:06.383Z,15.75
2019-03-08T19:23:51.856Z,16.20
2019-03-08T19:26:31.396Z,16.90
2019-03-08T19:29:17.572Z,14.75
2019-03-08T19:31:47.578Z,14.68
2019-03-08T19:34:20.820Z,21.68
2019-03-08T19:37:02.531Z,20.90
2019-03-08T19:39:38.843Z,17.60
2019-03-08T19:42:27.795Z,19.55
2019-03-08T19:45:00.559Z,15.10
2019-03-08T19:47:39.822Z,15.93
2019-03-08T19:50:20.318Z,15.30
2019-03-08T19:52:59.117Z,15.13
2019-03-08T19:55:29.031Z,14.78
2019-03-08T19:58:02.259Z,13.93
2019-03-08T20:00:34.948Z,13.85
2019-03-08T20:03:08.288Z,12.10
2019-03-08T20:05:38.616Z,12.50
2019-03-08T20:08:20.859Z,11.63
2019-03-08T20:11:07.615Z,12.78
2019-03-08T20:13:38.928Z,12.40
2019-03-08T20:16:24.239Z,11.65
2019-03-08T20:19:00.091Z,10.78
2019-03-08T20:21:30.075Z,10.70
2019-03-08T20:24:16.350Z,11.08
2019-03-08T20:26:46.259Z,8.98
2019-03-08T20:29:28.175Z,8.53
2019-03-08T20:32:01.282Z,10.53
2019-03-08T20:34:49.949Z,9.03
2019-03-08T20:37:20.271Z,10.95
2019-03-08T20:39:50.189Z,8.00
2019-03-08T20:42:36.488Z,7.60
2019-03-08T20:45:11.619Z,6.78
2019-03-08T20:47:39.932Z,7.78
2019-03-08T20:50:11.006Z,8.85
2019-03-08T20:52:39.638Z,7.60
2019-03-08T20:55:10.493Z,6.80
2019-03-08T20:57:38.827Z,6.30
2019-03-08T21:00:10.423Z,6.50
2019-03-08T21:02:38.771Z,5.80
2019-03-08T21:05:08.106Z,5.78
2019-03-08T21:07:36.372Z,5.92
2019-03-08T21:10:08.048Z,5.80
2019-03-08T21:12:36.406Z,5.65
2019-03-08T21:15:08.697Z,6.45
2019-03-08T21:17:37.391Z,5.90
2019-03-08T21:20:09.234Z,5.78
2019-03-08T21:22:37.844Z,6.30
2019-03-08T21:25:11.231Z,5.40
2019-03-08T21:27:39.490Z,5.12
2019-03-08T21:30:16.194Z,4.90
2019-03-08T21:32:44.467Z,5.35
2019-03-08T21:35:12.760Z,5.20
2019-03-08T21:37:41.543Z,5.47
2019-03-08T21:40:15.568Z,4.97
2019-03-08T21:42:43.915Z,4.45
2019-03-08T21:45:15.625Z,4.72
2019-03-08T21:47:44.294Z,5.30
2019-03-08T21:50:17.632Z,5.20
2019-03-08T21:52:45.895Z,5.12
2019-03-08T21:55:14.459Z,4.62
2019-03-08T21:57:42.809Z,5.03
2019-03-08T22:00:19.003Z,4.70
2019-03-08T22:02:47.595Z,5.42
2019-03-08T22:05:17.524Z,4.92
2019-03-08T22:07:46.091Z,4.67
2019-03-08T22:10:26.543Z,5.28
2019-03-08T22:12:55.103Z,4.50
2019-03-08T22:15:23.731Z,4.58
2019-03-08T22:17:52.423Z,5.17
2019-03-08T22:20:21.140Z,4.70
2019-03-08T22:22:49.478Z,5.05
2019-03-08T22:25:17.850Z,5.87
2019-03-08T22:27:46.194Z,6.17
2019-03-08T22:30:16.809Z,6.50
2019-03-08T22:32:45.588Z,7.03
2019-03-08T22:35:13.954Z,6.05
2019-03-08T22:37:42.559Z,7.03
2019-03-08T22:40:11.291Z,6.67
2019-03-08T22:42:40.080Z,6.75
2019-03-08T22:45:10.167Z,6.75
2019-03-08T22:47:38.433Z,6.72
2019-03-08T22:50:15.118Z,7.42
2019-03-08T22:52:43.394Z,7.47
2019-03-08T22:55:16.015Z,7.85
2019-03-08T22:57:44.671Z,7.22
2019-03-08T23:00:50.919Z,7.22
2019-03-08T23:03:19.608Z,6.92
2019-03-08T23:05:47.899Z,7.08
2019-03-08T23:08:16.239Z,8.13
2019-03-08T23:10:46.191Z,7.85
2019-03-08T23:13:14.779Z,7.75
2019-03-08T23:15:43.375Z,8.18
2019-03-08T23:18:11.707Z,8.00
2019-03-08T23:20:39.994Z,7.42
2019-03-08T23:23:08.263Z,7.53
2019-03-08T23:25:36.903Z,6.75
2019-03-08T23:28:23.807Z,7.75
2019-03-08T23:31:04.567Z,8.23
2019-03-08T23:33:32.831Z,7.30
2019-03-08T23:36:01.131Z,7.45
2019-03-08T23:38:29.828Z,8.30
2019-03-08T23:40:59.723Z,7.58
2019-03-08T23:43:28.331Z,7.53
2019-03-08T23:45:56.695Z,8.38
2019-03-08T23:48:25.039Z,8.35
2019-03-08T23:50:53.416Z,7.92
2019-03-08T23:53:22.074Z,7.58
2019-03-08T23:55:50.707Z,9.00
2019-03-08T23:58:19.555Z,7.28
